Time;durP1;ratioP1;P1;durP2;ratioP2;P2;SDS_P1;SDS_P2;PMS_P1;PMS_P2;Temp;Humidity;BMP_temperature;BMP_pressure;BME280_temperature;BME280_humidity;BME280_pressure;Samples;Min_cycle;Max_cycle;Signal;HPM_P1;HPM_P2
2023/06/15 00:02:04;;;;;;;;;;;21.00;47.80;;;;;;5073521;28;19909;-25
2023/06/15 00:04:29;;;;;;;;;;;20.90;48.00;;;;;;5073013;28;20379;-30
2023/06/15 00:06:55;;;;;;;;;;;20.80;47.90;;;;;;5073965;28;20375;-26
2023/06/15 00:09:21;;;;;;;;;;;20.80;47.80;;;;;;5073929;28;19915;-29
2023/06/15 00:11:46;;;;;;;;;;;20.80;48.30;;;;;;5073622;28;20000;-25
2023/06/15 00:14:12;;;;;;;;;;;20.70;48.30;;;;;;5073591;28;19908;-27
2023/06/15 00:16:41;;;;;;;;;;;20.70;48.80;;;;;;5073470;28;20317;-25
2023/06/15 00:19:08;;;;;;;;;;;20.60;49.20;;;;;;5073993;28;19912;-26
2023/06/15 00:21:40;;;;;;;;;;;20.60;49.30;;;;;;5073668;28;19994;-28
2023/06/15 00:24:06;;;;;;;;;;;20.50;50.30;;;;;;5073862;28;19931;-32
2023/06/15 00:26:32;;;;;;;;;;;20.40;50.30;;;;;;5073394;28;19952;-30
2023/06/15 00:28:57;;;;;;;;;;;20.40;50.30;;;;;;5073225;28;20339;-30
2023/06/15 00:31:23;;;;;;;;;;;20.40;50.50;;;;;;5073350;28;19915;-28
2023/06/15 00:33:48;;;;;;;;;;;20.40;50.40;;;;;;5073135;28;19912;-29
2023/06/15 00:36:14;;;;;;;;;;;20.30;50.30;;;;;;5073110;28;19909;-25
2023/06/15 00:38:39;;;;;;;;;;;20.30;50.40;;;;;;5073079;28;19916;-27
2023/06/15 00:41:05;;;;;;;;;;;20.30;50.50;;;;;;5073323;28;19908;-26
2023/06/15 00:43:30;;;;;;;;;;;20.30;50.80;;;;;;5073348;28;20363;-26
2023/06/15 00:45:56;;;;;;;;;;;20.20;50.90;;;;;;5073207;28;19923;-29
2023/06/15 00:48:21;;;;;;;;;;;20.20;50.90;;;;;;5073112;28;19908;-31
2023/06/15 00:50:47;;;;;;;;;;;20.20;51.00;;;;;;5072962;28;20319;-27
2023/06/15 00:53:12;;;;;;;;;;;20.20;51.10;;;;;;5072918;28;19913;-27
2023/06/15 00:55:39;;;;;;;;;;;20.20;51.20;;;;;;5073157;28;19908;-27
2023/06/15 00:58:05;;;;;;;;;;;20.10;51.20;;;;;;5072913;28;19915;-24
2023/06/15 01:00:32;;;;;;;;;;;20.10;51.80;;;;;;5072733;28;19908;-29
2023/06/15 01:02:59;;;;;;;;;;;20.10;51.80;;;;;;5072548;28;19940;-29
2023/06/15 01:05:25;;;;;;;;;;;20.10;52.10;;;;;;5072293;28;19951;-27
2023/06/15 01:07:52;;;;;;;;;;;20.00;52.80;;;;;;5072537;28;20135;-27
2023/06/15 01:10:22;;;;;;;;;;;20.00;52.80;;;;;;5073112;28;19995;-31
2023/06/15 01:12:50;;;;;;;;;;;20.00;52.80;;;;;;5072598;28;19908;-29
2023/06/15 01:15:16;;;;;;;;;;;19.90;52.70;;;;;;5072215;28;19909;-24
2023/06/15 01:17:44;;;;;;;;;;;19.90;52.60;;;;;;5072464;28;19909;-27
2023/06/15 01:20:14;;;;;;;;;;;20.00;52.50;;;;;;5072669;28;19908;-26
2023/06/15 01:22:45;;;;;;;;;;;19.90;52.70;;;;;;5072449;28;20200;-24
2023/06/15 01:25:34;;;;;;;;;;;19.90;53.10;;;;;;5072601;28;19916;-28
2023/06/15 01:28:01;;;;;;;;;;;19.90;53.10;;;;;;5061423;28;19909;-31
2023/06/15 01:30:32;;;;;;;;;;;19.90;53.40;;;;;;5072727;28;19916;-28
2023/06/15 01:32:57;;;;;;;;;;;19.80;53.60;;;;;;5072679;28;20268;-29
2023/06/15 01:35:23;;;;;;;;;;;19.80;53.80;;;;;;5072296;28;19913;-31
2023/06/15 01:37:48;;;;;;;;;;;19.80;54.40;;;;;;5072460;28;20354;-30
2023/06/15 01:40:14;;;;;;;;;;;19.70;54.20;;;;;;5072437;28;20263;-26
2023/06/15 01:42:40;;;;;;;;;;;19.70;54.10;;;;;;5072221;28;19948;-35
2023/06/15 01:45:06;;;;;;;;;;;19.70;54.40;;;;;;5072356;28;19991;-29
2023/06/15 01:47:32;;;;;;;;;;;19.70;54.50;;;;;;5072085;28;20124;-27
2023/06/15 01:49:59;;;;;;;;;;;19.70;55.30;;;;;;5071957;28;20398;-28
2023/06/15 01:52:24;;;;;;;;;;;19.60;55.20;;;;;;5071915;28;19908;-31
2023/06/15 01:54:50;;;;;;;;;;;19.60;55.10;;;;;;5071918;28;19915;-29
2023/06/15 01:57:18;;;;;;;;;;;19.60;54.90;;;;;;5071901;28;19999;-27
2023/06/15 01:59:43;;;;;;;;;;;19.60;55.00;;;;;;5072215;28;19970;-32
2023/06/15 02:02:09;;;;;;;;;;;19.60;55.10;;;;;;5071709;28;19912;-29
2023/06/15 02:04:34;;;;;;;;;;;19.50;55.10;;;;;;5072167;28;20344;-27
2023/06/15 02:07:00;;;;;;;;;;;19.50;55.30;;;;;;5071570;28;20007;-28
2023/06/15 02:09:25;;;;;;;;;;;19.50;55.20;;;;;;5071656;28;20265;-31
2023/06/15 02:11:51;;;;;;;;;;;19.40;55.40;;;;;;5071689;28;19999;-27
2023/06/15 02:14:17;;;;;;;;;;;19.40;55.50;;;;;;5071856;28;19924;-33
2023/06/15 02:16:43;;;;;;;;;;;19.40;55.60;;;;;;5072048;28;19958;-30
2023/06/15 02:19:08;;;;;;;;;;;19.40;55.80;;;;;;5071730;28;19959;-31
2023/06/15 02:21:35;;;;;;;;;;;19.30;56.10;;;;;;5071880;28;19912;-30
2023/06/15 02:24:00;;;;;;;;;;;19.30;56.20;;;;;;5071580;28;19915;-30
2023/06/15 02:26:26;;;;;;;;;;;19.30;56.90;;;;;;5072878;28;19912;-26
2023/06/15 02:28:51;;;;;;;;;;;19.20;57.10;;;;;;5075683;28;20361;-29
2023/06/15 02:31:17;;;;;;;;;;;19.20;57.10;;;;;;5074640;28;19908;-25
2023/06/15 02:33:42;;;;;;;;;;;19.10;57.10;;;;;;5075548;28;20164;-30
2023/06/15 02:36:08;;;;;;;;;;;19.10;57.10;;;;;;5075646;28;19923;-29
2023/06/15 02:38:33;;;;;;;;;;;19.10;57.20;;;;;;5075704;28;19939;-27
2023/06/15 02:40:59;;;;;;;;;;;19.10;57.40;;;;;;5075468;28;19913;-31
2023/06/15 02:43:25;;;;;;;;;;;19.10;57.40;;;;;;5075442;28;20252;-28
2023/06/15 02:45:50;;;;;;;;;;;19.10;57.60;;;;;;5075500;28;19912;-25
2023/06/15 02:48:16;;;;;;;;;;;19.00;57.70;;;;;;5075632;28;20365;-27
2023/06/15 02:50:41;;;;;;;;;;;19.00;57.70;;;;;;5075376;28;20364;-28
2023/06/15 02:53:07;;;;;;;;;;;19.00;57.80;;;;;;5075596;28;19908;-28
2023/06/15 02:55:33;;;;;;;;;;;19.00;57.80;;;;;;5075211;28;19912;-26
2023/06/15 02:57:58;;;;;;;;;;;18.90;57.70;;;;;;5075050;28;19909;-31
2023/06/15 03:00:25;;;;;;;;;;;18.90;57.90;;;;;;5075421;28;19908;-26
2023/06/15 03:02:52;;;;;;;;;;;18.90;58.00;;;;;;5075205;28;19909;-29
2023/06/15 03:05:18;;;;;;;;;;;18.90;58.30;;;;;;5075112;28;19973;-27
2023/06/15 03:07:44;;;;;;;;;;;18.90;58.30;;;;;;5073554;28;19915;-32
2023/06/15 03:10:10;;;;;;;;;;;18.90;58.40;;;;;;5074921;28;19908;-31
2023/06/15 03:12:36;;;;;;;;;;;18.80;58.30;;;;;;5075269;28;19970;-26
2023/06/15 03:15:01;;;;;;;;;;;18.80;58.40;;;;;;5074787;28;19995;-27
2023/06/15 03:17:27;;;;;;;;;;;18.80;58.30;;;;;;5074772;28;20007;-26
2023/06/15 03:19:52;;;;;;;;;;;18.80;58.20;;;;;;5074653;28;20294;-31
2023/06/15 03:22:18;;;;;;;;;;;18.80;58.20;;;;;;5074942;28;20003;-26
2023/06/15 03:24:44;;;;;;;;;;;18.80;58.10;;;;;;5074482;28;19982;-29
2023/06/15 03:27:10;;;;;;;;;;;18.80;58.10;;;;;;5073197;28;19908;-31
2023/06/15 03:29:39;;;;;;;;;;;18.80;58.10;;;;;;5074902;28;19995;-26
2023/06/15 03:32:08;;;;;;;;;;;18.80;58.10;;;;;;5074453;28;19936;-28
2023/06/15 03:34:37;;;;;;;;;;;18.80;58.10;;;;;;5074689;28;20368;-28
2023/06/15 03:37:03;;;;;;;;;;;18.80;58.10;;;;;;5074272;28;19912;-30
2023/06/15 03:39:28;;;;;;;;;;;18.80;58.30;;;;;;5074363;28;19909;-26
2023/06/15 03:41:54;;;;;;;;;;;18.70;58.30;;;;;;5074495;28;19915;-31
2023/06/15 03:44:20;;;;;;;;;;;18.70;58.30;;;;;;5074385;28;19909;-26
2023/06/15 03:46:46;;;;;;;;;;;18.70;58.20;;;;;;5074700;28;19912;-26
2023/06/15 03:49:13;;;;;;;;;;;18.80;58.30;;;;;;5074459;28;19915;-31
2023/06/15 03:51:38;;;;;;;;;;;18.80;58.30;;;;;;5074174;28;20046;-27
2023/06/15 03:54:04;;;;;;;;;;;18.80;58.20;;;;;;5074598;28;19999;-29
2023/06/15 03:56:30;;;;;;;;;;;18.80;58.20;;;;;;5074158;28;19908;-27
2023/06/15 03:58:55;;;;;;;;;;;18.80;58.20;;;;;;5073895;28;20344;-26
2023/06/15 04:01:22;;;;;;;;;;;18.80;58.10;;;;;;5074006;28;19999;-26
2023/06/15 04:03:48;;;;;;;;;;;18.80;58.00;;;;;;5074173;28;20380;-29
2023/06/15 04:06:15;;;;;;;;;;;18.90;58.00;;;;;;5073761;28;19956;-27
2023/06/15 04:08:40;;;;;;;;;;;18.90;58.00;;;;;;5073821;28;19934;-28
2023/06/15 04:11:06;;;;;;;;;;;18.90;58.00;;;;;;5073943;28;19916;-28
2023/06/15 04:13:31;;;;;;;;;;;18.90;58.00;;;;;;5073781;28;19944;-26
2023/06/15 04:15:57;;;;;;;;;;;19.00;58.00;;;;;;5074006;28;19909;-26
2023/06/15 04:18:23;;;;;;;;;;;19.00;57.90;;;;;;5073762;28;19912;-31
2023/06/15 04:20:49;;;;;;;;;;;19.00;57.90;;;;;;5073799;28;19912;-27
2023/06/15 04:23:14;;;;;;;;;;;19.00;57.90;;;;;;5073726;28;19934;-28
2023/06/15 04:25:42;;;;;;;;;;;19.00;58.00;;;;;;5073503;28;20482;-29
2023/06/15 04:28:11;;;;;;;;;;;19.00;58.00;;;;;;5072204;28;19924;-27
2023/06/15 04:30:40;;;;;;;;;;;19.00;58.00;;;;;;5073536;28;19948;-27
2023/06/15 04:33:12;;;;;;;;;;;19.00;57.90;;;;;;5073194;28;19923;-30
2023/06/15 04:35:45;;;;;;;;;;;19.10;57.90;;;;;;5073640;28;20054;-25
2023/06/15 04:38:13;;;;;;;;;;;19.00;57.90;;;;;;5073398;28;19987;-29
2023/06/15 04:40:41;;;;;;;;;;;19.00;57.90;;;;;;5073439;28;19909;-32
2023/06/15 04:43:07;;;;;;;;;;;19.00;58.00;;;;;;5073135;28;19913;-29
2023/06/15 04:45:34;;;;;;;;;;;19.00;58.00;;;;;;5073301;28;20382;-27
2023/06/15 04:47:59;;;;;;;;;;;19.10;58.00;;;;;;5073195;28;19909;-28
2023/06/15 04:50:25;;;;;;;;;;;19.10;58.00;;;;;;5072598;28;19974;-29
2023/06/15 04:52:50;;;;;;;;;;;19.10;57.90;;;;;;5072969;28;19954;-28
2023/06/15 04:55:16;;;;;;;;;;;19.10;57.90;;;;;;5072773;28;20283;-25
2023/06/15 04:57:41;;;;;;;;;;;19.10;57.90;;;;;;5073082;28;19909;-29
2023/06/15 05:00:08;;;;;;;;;;;19.20;57.90;;;;;;5072773;28;20303;-29
2023/06/15 05:02:34;;;;;;;;;;;19.20;57.90;;;;;;5072686;28;19915;-32
2023/06/15 05:04:59;;;;;;;;;;;19.20;57.80;;;;;;5072560;28;19908;-31
2023/06/15 05:07:25;;;;;;;;;;;19.20;57.80;;;;;;5072543;28;19999;-33
2023/06/15 05:09:50;;;;;;;;;;;19.20;57.80;;;;;;5072683;28;20003;-33
2023/06/15 05:12:16;;;;;;;;;;;19.30;57.80;;;;;;5072581;28;19908;-27
2023/06/15 05:14:41;;;;;;;;;;;19.30;57.70;;;;;;5072903;28;20341;-26
2023/06/15 05:17:07;;;;;;;;;;;19.30;57.80;;;;;;5072549;28;19915;-27
2023/06/15 05:19:32;;;;;;;;;;;19.30;57.70;;;;;;5072653;28;20023;-31
2023/06/15 05:22:00;;;;;;;;;;;19.40;57.60;;;;;;5072524;28;19999;-30
2023/06/15 05:24:25;;;;;;;;;;;19.40;57.50;;;;;;5072344;28;20003;-28
2023/06/15 05:26:51;;;;;;;;;;;19.40;57.50;;;;;;5072475;28;20303;-25
2023/06/15 05:29:16;;;;;;;;;;;19.50;57.40;;;;;;5072676;28;20375;-28
2023/06/15 05:31:42;;;;;;;;;;;19.50;57.30;;;;;;5072277;28;19912;-29
2023/06/15 05:34:07;;;;;;;;;;;19.60;57.30;;;;;;5072224;28;19908;-29
2023/06/15 05:36:34;;;;;;;;;;;19.60;57.20;;;;;;5072255;28;19934;-30
2023/06/15 05:39:00;;;;;;;;;;;19.60;57.70;;;;;;5072270;28;19932;-27
2023/06/15 05:41:25;;;;;;;;;;;19.70;57.10;;;;;;5072411;28;19908;-28
2023/06/15 05:43:51;;;;;;;;;;;19.80;57.10;;;;;;5072160;28;19963;-33
2023/06/15 05:46:16;;;;;;;;;;;19.80;57.00;;;;;;5071989;28;19919;-29
2023/06/15 05:48:42;;;;;;;;;;;19.80;56.90;;;;;;5072451;28;19908;-29
2023/06/15 05:51:07;;;;;;;;;;;19.90;56.80;;;;;;5072029;28;19915;-25
2023/06/15 05:53:33;;;;;;;;;;;19.90;56.80;;;;;;5072105;28;19913;-27
2023/06/15 05:55:58;;;;;;;;;;;19.90;56.70;;;;;;5072029;28;20446;-33
2023/06/15 05:58:23;;;;;;;;;;;19.90;56.70;;;;;;5071755;28;19944;-26
2023/06/15 06:00:49;;;;;;;;;;;20.00;56.60;;;;;;5072123;28;19909;-29
2023/06/15 06:03:15;;;;;;;;;;;20.00;56.60;;;;;;5072124;28;19909;-28
2023/06/15 06:05:40;;;;;;;;;;;20.10;56.50;;;;;;5071659;28;19924;-34
2023/06/15 06:08:06;;;;;;;;;;;20.10;56.40;;;;;;5071701;28;19918;-30
2023/06/15 06:10:31;;;;;;;;;;;20.10;56.40;;;;;;5072063;28;20551;-28
2023/06/15 06:12:57;;;;;;;;;;;20.20;56.40;;;;;;5071620;28;19909;-31
2023/06/15 06:15:23;;;;;;;;;;;20.20;56.30;;;;;;5071816;28;19913;-31
2023/06/15 06:17:49;;;;;;;;;;;20.30;56.20;;;;;;5070296;28;19915;-29
2023/06/15 06:20:14;;;;;;;;;;;20.30;56.10;;;;;;5071650;28;19909;-31
2023/06/15 06:22:41;;;;;;;;;;;20.40;56.00;;;;;;5071836;28;19916;-42
2023/06/15 06:25:07;;;;;;;;;;;20.50;55.90;;;;;;5071629;28;19999;-29
2023/06/15 06:27:32;;;;;;;;;;;20.60;55.80;;;;;;5071731;28;20007;-25
2023/06/15 06:29:59;;;;;;;;;;;20.60;55.70;;;;;;5071926;28;20424;-34
2023/06/15 06:32:25;;;;;;;;;;;20.70;55.60;;;;;;5071753;28;20279;-28
2023/06/15 06:34:50;;;;;;;;;;;20.70;55.50;;;;;;5071510;28;19908;-28
2023/06/15 06:37:16;;;;;;;;;;;20.70;55.50;;;;;;5071869;28;20398;-28
2023/06/15 06:39:41;;;;;;;;;;;20.80;55.40;;;;;;5071479;28;20291;-26
2023/06/15 06:42:07;;;;;;;;;;;20.80;55.60;;;;;;5071659;28;19995;-28
2023/06/15 06:44:32;;;;;;;;;;;20.80;55.40;;;;;;5071570;28;19919;-29
2023/06/15 06:46:59;;;;;;;;;;;20.80;55.50;;;;;;5071436;28;20049;-27
2023/06/15 06:49:24;;;;;;;;;;;20.90;55.30;;;;;;5071717;28;19991;-25
2023/06/15 06:51:50;;;;;;;;;;;20.90;55.30;;;;;;5071381;28;19993;-29
2023/06/15 06:54:15;;;;;;;;;;;21.00;55.20;;;;;;5071486;28;19920;-26
2023/06/15 06:56:41;;;;;;;;;;;21.00;55.10;;;;;;5071834;28;19908;-26
2023/06/15 06:59:06;;;;;;;;;;;21.10;55.00;;;;;;5070026;28;19943;-30
2023/06/15 07:01:32;;;;;;;;;;;21.20;54.80;;;;;;5071475;28;19919;-30
2023/06/15 07:03:57;;;;;;;;;;;21.20;54.70;;;;;;5071257;28;19908;-31
2023/06/15 07:06:23;;;;;;;;;;;21.30;54.60;;;;;;5071068;28;19920;-28
2023/06/15 07:08:48;;;;;;;;;;;21.40;54.50;;;;;;5071370;28;19912;-34
2023/06/15 07:11:14;;;;;;;;;;;21.40;54.40;;;;;;5071526;28;19912;-30
2023/06/15 07:13:40;;;;;;;;;;;21.50;54.30;;;;;;5074065;28;19913;-27
2023/06/15 07:16:06;;;;;;;;;;;21.60;54.10;;;;;;5074979;28;19974;-30
2023/06/15 07:18:31;;;;;;;;;;;21.70;54.00;;;;;;5074921;28;20003;-30
2023/06/15 07:20:57;;;;;;;;;;;21.80;53.90;;;;;;5074785;28;20391;-25
2023/06/15 07:23:23;;;;;;;;;;;21.90;53.70;;;;;;5074741;28;19956;-27
2023/06/15 07:25:49;;;;;;;;;;;21.90;53.60;;;;;;5074588;28;19920;-27
2023/06/15 07:28:15;;;;;;;;;;;22.00;53.50;;;;;;5074625;28;19912;-27
2023/06/15 07:30:41;;;;;;;;;;;22.10;53.40;;;;;;5074804;28;19912;-26
2023/06/15 07:33:06;;;;;;;;;;;22.10;53.30;;;;;;5074413;28;19944;-30
2023/06/15 07:35:32;;;;;;;;;;;22.20;53.20;;;;;;5074434;28;19978;-27
2023/06/15 07:37:57;;;;;;;;;;;22.20;53.00;;;;;;5073138;28;20410;-30
2023/06/15 07:40:23;;;;;;;;;;;22.30;53.00;;;;;;5074713;28;19912;-28
2023/06/15 07:42:48;;;;;;;;;;;22.30;52.80;;;;;;5074414;28;19912;-27
2023/06/15 07:45:14;;;;;;;;;;;22.50;52.80;;;;;;5074442;28;19931;-26
2023/06/15 07:47:41;;;;;;;;;;;22.50;52.60;;;;;;5074450;28;19962;-27
2023/06/15 07:50:06;;;;;;;;;;;22.50;52.30;;;;;;5074128;28;19939;-29
2023/06/15 07:52:32;;;;;;;;;;;22.50;52.20;;;;;;5074345;28;19917;-30
2023/06/15 07:54:57;;;;;;;;;;;22.60;52.20;;;;;;5074258;28;20499;-28
2023/06/15 07:57:23;;;;;;;;;;;22.70;52.10;;;;;;5074179;28;19918;-28
2023/06/15 07:59:48;;;;;;;;;;;22.70;52.00;;;;;;5074316;28;19979;-25
2023/06/15 08:02:14;;;;;;;;;;;22.80;51.90;;;;;;5074079;28;19913;-25
2023/06/15 08:04:39;;;;;;;;;;;22.90;51.80;;;;;;5074470;28;19913;-30
2023/06/15 08:07:06;;;;;;;;;;;22.90;51.60;;;;;;5073772;28;20435;-30
2023/06/15 08:09:31;;;;;;;;;;;22.90;51.50;;;;;;5074265;28;20384;-26
2023/06/15 08:11:57;;;;;;;;;;;23.00;51.50;;;;;;5073835;28;19912;-27
2023/06/15 08:14:22;;;;;;;;;;;23.00;51.40;;;;;;5073504;28;19922;-26
2023/06/15 08:16:48;;;;;;;;;;;23.10;51.30;;;;;;5072930;28;20402;-27
2023/06/15 08:19:13;;;;;;;;;;;23.20;51.20;;;;;;5073076;28;19912;-28
2023/06/15 08:21:41;;;;;;;;;;;23.30;51.00;;;;;;5073788;28;19920;-26
2023/06/15 08:24:07;;;;;;;;;;;23.40;50.90;;;;;;5072558;28;19916;-28
2023/06/15 08:26:32;;;;;;;;;;;23.50;50.70;;;;;;5073996;28;19924;-25
2023/06/15 08:28:58;;;;;;;;;;;23.50;50.40;;;;;;5073771;28;19925;-30
2023/06/15 08:31:23;;;;;;;;;;;23.50;50.40;;;;;;5073869;28;19912;-28
2023/06/15 08:33:49;;;;;;;;;;;23.60;50.30;;;;;;5073587;28;19912;-26
2023/06/15 08:36:15;;;;;;;;;;;23.70;50.20;;;;;;5073815;28;19920;-28
2023/06/15 08:38:41;;;;;;;;;;;23.80;50.10;;;;;;5073338;28;19913;-27
2023/06/15 08:41:07;;;;;;;;;;;23.80;50.00;;;;;;5073260;28;19923;-28
2023/06/15 08:43:32;;;;;;;;;;;23.90;49.90;;;;;;5073558;28;20268;-26
2023/06/15 08:45:58;;;;;;;;;;;23.90;49.80;;;;;;5073408;28;19924;-25
2023/06/15 08:48:26;;;;;;;;;;;24.00;49.70;;;;;;5073273;28;19919;-29
2023/06/15 08:50:52;;;;;;;;;;;24.10;49.60;;;;;;5073148;28;20379;-29
2023/06/15 08:53:18;;;;;;;;;;;24.20;49.40;;;;;;5073062;28;19920;-27
2023/06/15 08:55:44;;;;;;;;;;;24.30;49.30;;;;;;5073225;28;19917;-27
2023/06/15 08:58:10;;;;;;;;;;;24.30;49.20;;;;;;5073288;28;20297;-29
2023/06/15 09:00:36;;;;;;;;;;;24.40;49.20;;;;;;5073230;28;19920;-28
2023/06/15 09:03:03;;;;;;;;;;;24.50;49.10;;;;;;5073062;28;19912;-26
2023/06/15 09:05:28;;;;;;;;;;;24.60;49.00;;;;;;5072958;28;19944;-26
2023/06/15 09:07:54;;;;;;;;;;;24.60;48.90;;;;;;5071624;28;19913;-30
2023/06/15 09:10:20;;;;;;;;;;;24.60;48.90;;;;;;5072928;28;19912;-27
2023/06/15 09:12:47;;;;;;;;;;;24.70;48.80;;;;;;5072813;28;19958;-27
2023/06/15 09:15:29;;;;;;;;;;;24.70;48.80;;;;;;5072889;28;20010;-27
2023/06/15 09:17:55;;;;;;;;;;;24.80;48.80;;;;;;5073038;28;19917;-31
2023/06/15 09:20:21;;;;;;;;;;;24.90;48.60;;;;;;5071414;28;19916;-27
2023/06/15 09:22:47;;;;;;;;;;;24.90;48.50;;;;;;5072610;28;19913;-29
2023/06/15 09:25:13;;;;;;;;;;;25.00;48.50;;;;;;5072548;28;19919;-26
2023/06/15 09:27:39;;;;;;;;;;;25.10;48.30;;;;;;5072805;28;19912;-29
2023/06/15 09:30:07;;;;;;;;;;;25.20;48.20;;;;;;5072821;28;19913;-28
2023/06/15 09:32:32;;;;;;;;;;;25.20;48.10;;;;;;5072810;28;19916;-26
2023/06/15 09:34:58;;;;;;;;;;;25.30;47.90;;;;;;5071979;28;19919;-27
2023/06/15 09:37:27;;;;;;;;;;;25.30;47.60;;;;;;5072257;28;19912;-26
2023/06/15 09:39:53;;;;;;;;;;;25.30;47.20;;;;;;5072437;28;19923;-26
2023/06/15 09:42:26;;;;;;;;;;;25.30;46.80;;;;;;5072550;28;20361;-31
2023/06/15 09:44:58;;;;;;;;;;;25.40;47.20;;;;;;5072647;28;19965;-27
2023/06/15 09:47:27;;;;;;;;;;;25.40;46.90;;;;;;5072303;28;19916;-29
2023/06/15 09:49:53;;;;;;;;;;;25.50;46.90;;;;;;5072215;28;20030;-27
2023/06/15 09:52:18;;;;;;;;;;;25.50;46.80;;;;;;5072105;28;19974;-29
2023/06/15 09:54:44;;;;;;;;;;;25.50;46.60;;;;;;5072242;28;19913;-29
2023/06/15 09:57:10;;;;;;;;;;;25.60;46.20;;;;;;5072283;28;19917;-32
2023/06/15 09:59:36;;;;;;;;;;;25.60;45.90;;;;;;5072327;28;19919;-28
2023/06/15 10:02:04;;;;;;;;;;;25.60;45.30;;;;;;5072039;28;19912;-30
2023/06/15 10:04:31;;;;;;;;;;;25.70;45.50;;;;;;5072313;28;20010;-28
2023/06/15 10:07:04;;;;;;;;;;;25.70;45.50;;;;;;5071651;28;19927;-31
2023/06/15 10:09:35;;;;;;;;;;;25.70;45.40;;;;;;5072303;28;19944;-28
2023/06/15 10:12:08;;;;;;;;;;;25.70;45.80;;;;;;5072266;28;20371;-36
2023/06/15 10:14:37;;;;;;;;;;;25.70;45.20;;;;;;5071942;28;20015;-30
2023/06/15 10:17:04;;;;;;;;;;;25.70;45.40;;;;;;5071979;28;20007;-35
2023/06/15 10:19:31;;;;;;;;;;;25.70;45.40;;;;;;5071771;28;19913;-31
2023/06/15 10:21:57;;;;;;;;;;;25.70;45.30;;;;;;5072083;28;20375;-32
2023/06/15 10:24:24;;;;;;;;;;;25.70;45.10;;;;;;5072066;28;19916;-32
2023/06/15 10:26:50;;;;;;;;;;;25.70;45.30;;;;;;5071672;28;20314;-34
2023/06/15 10:29:16;;;;;;;;;;;25.80;45.20;;;;;;5071588;28;19917;-33
2023/06/15 10:31:45;;;;;;;;;;;25.90;45.00;;;;;;5071770;28;19916;-28
2023/06/15 10:34:15;;;;;;;;;;;26.00;44.60;;;;;;5071913;28;20280;-31
2023/06/15 10:36:44;;;;;;;;;;;26.00;44.80;;;;;;5072036;28;19913;-35
2023/06/15 10:39:17;;;;;;;;;;;25.90;44.80;;;;;;5071860;28;19912;-32
2023/06/15 10:41:43;;;;;;;;;;;25.90;44.80;;;;;;5071679;28;19919;-29
2023/06/15 10:44:13;;;;;;;;;;;25.90;45.00;;;;;;5071620;28;20482;-34
2023/06/15 10:46:38;;;;;;;;;;;25.80;44.90;;;;;;5071553;28;19928;-33
2023/06/15 10:49:05;;;;;;;;;;;25.90;44.80;;;;;;5075589;28;19940;-29
2023/06/15 10:51:35;;;;;;;;;;;25.90;44.90;;;;;;5075358;28;19920;-34
2023/06/15 10:54:04;;;;;;;;;;;25.90;44.90;;;;;;5075552;28;19935;-29
2023/06/15 10:56:30;;;;;;;;;;;25.90;44.60;;;;;;5075132;28;19927;-30
2023/06/15 10:58:58;;;;;;;;;;;25.80;44.30;;;;;;5075374;28;20288;-31
2023/06/15 11:01:25;;;;;;;;;;;25.80;44.50;;;;;;5075649;28;19912;-30
2023/06/15 11:03:51;;;;;;;;;;;25.90;44.40;;;;;;5075032;28;19996;-33
2023/06/15 11:06:19;;;;;;;;;;;26.00;44.40;;;;;;5075156;28;19967;-31
2023/06/15 11:08:48;;;;;;;;;;;26.30;44.00;;;;;;5075258;28;19912;-27
2023/06/15 11:11:29;;;;;;;;;;;26.40;43.90;;;;;;5075258;28;19916;-32
2023/06/15 11:13:59;;;;;;;;;;;26.60;43.80;;;;;;5075288;28;19913;-29
2023/06/15 11:16:27;;;;;;;;;;;26.90;43.70;;;;;;5074989;28;19947;-32
2023/06/15 11:18:56;;;;;;;;;;;27.00;43.50;;;;;;5074876;28;20009;-27
2023/06/15 11:21:26;;;;;;;;;;;27.20;43.10;;;;;;5074747;28;19912;-29
2023/06/15 11:23:57;;;;;;;;;;;27.30;43.10;;;;;;5074055;28;19956;-32
2023/06/15 11:26:27;;;;;;;;;;;27.40;43.10;;;;;;5074772;28;20021;-33
2023/06/15 11:28:57;;;;;;;;;;;27.40;43.10;;;;;;5075079;28;20241;-29
2023/06/15 11:31:22;;;;;;;;;;;27.40;42.50;;;;;;5074670;28;19909;-31
2023/06/15 11:33:49;;;;;;;;;;;27.20;42.30;;;;;;5073362;28;19958;-30
2023/06/15 11:36:14;;;;;;;;;;;27.00;42.30;;;;;;5074708;28;19953;-30
2023/06/15 11:38:40;;;;;;;;;;;26.90;42.20;;;;;;5074552;28;19908;-30
2023/06/15 11:41:06;;;;;;;;;;;26.90;42.10;;;;;;5074810;28;20339;-31
2023/06/15 11:43:40;;;;;;;;;;;26.80;42.30;;;;;;5074431;28;19909;-31
2023/06/15 11:46:08;;;;;;;;;;;26.90;41.90;;;;;;5074316;28;20007;-28
2023/06/15 11:48:34;;;;;;;;;;;27.10;41.80;;;;;;5074323;28;19954;-26
2023/06/15 11:50:59;;;;;;;;;;;27.30;41.70;;;;;;5074673;28;20329;-33
2023/06/15 11:53:25;;;;;;;;;;;27.50;41.60;;;;;;5074564;28;19958;-30
2023/06/15 11:55:51;;;;;;;;;;;27.60;41.10;;;;;;5072825;28;19909;-34
2023/06/15 11:58:18;;;;;;;;;;;27.80;40.40;;;;;;5074255;28;19909;-31
2023/06/15 12:00:43;;;;;;;;;;;27.90;40.50;;;;;;5074396;28;20413;-30
2023/06/15 12:03:12;;;;;;;;;;;28.10;40.60;;;;;;5073875;28;20007;-30
2023/06/15 12:05:38;;;;;;;;;;;28.20;40.40;;;;;;5073868;28;20547;-31
2023/06/15 12:08:04;;;;;;;;;;;28.40;40.00;;;;;;5074379;28;19915;-31
2023/06/15 12:10:31;;;;;;;;;;;28.60;39.40;;;;;;5073931;28;19908;-30
2023/06/15 12:12:58;;;;;;;;;;;28.80;40.20;;;;;;5073805;28;19934;-29
2023/06/15 12:15:24;;;;;;;;;;;28.80;39.00;;;;;;5073717;28;19912;-31
2023/06/15 12:17:49;;;;;;;;;;;28.90;38.60;;;;;;5073564;28;20003;-27
2023/06/15 12:20:15;;;;;;;;;;;28.90;37.80;;;;;;5074219;28;19955;-27
2023/06/15 12:22:44;;;;;;;;;;;28.80;37.50;;;;;;5073961;28;20238;-31
2023/06/15 12:25:11;;;;;;;;;;;28.80;37.60;;;;;;5073832;28;20419;-29
2023/06/15 12:27:44;;;;;;;;;;;28.80;38.00;;;;;;5073446;28;19908;-32
2023/06/15 12:30:16;;;;;;;;;;;29.00;38.20;;;;;;5073490;28;20007;-32
2023/06/15 12:32:42;;;;;;;;;;;29.10;38.40;;;;;;5073426;28;19996;-27
2023/06/15 12:35:23;;;;;;;;;;;29.30;38.90;;;;;;5073648;28;19908;-32
2023/06/15 12:37:49;;;;;;;;;;;29.50;38.30;;;;;;5073281;28;19958;-33
2023/06/15 12:40:16;;;;;;;;;;;29.70;38.00;;;;;;5073623;28;20367;-29
2023/06/15 12:42:41;;;;;;;;;;;29.70;38.10;;;;;;5073180;28;19908;-30
2023/06/15 12:45:07;;;;;;;;;;;29.80;38.20;;;;;;5073312;28;20348;-30
2023/06/15 12:47:33;;;;;;;;;;;29.90;37.70;;;;;;5073489;28;20375;-31
2023/06/15 12:49:59;;;;;;;;;;;29.90;37.80;;;;;;5073417;28;19995;-31
2023/06/15 12:52:25;;;;;;;;;;;29.90;36.80;;;;;;5073314;28;20362;-27
2023/06/15 12:54:50;;;;;;;;;;;29.60;36.80;;;;;;5072801;28;19909;-30
2023/06/15 12:57:16;;;;;;;;;;;29.40;36.80;;;;;;5072753;28;19955;-31
2023/06/15 12:59:41;;;;;;;;;;;29.10;37.40;;;;;;5073096;28;19909;-32
2023/06/15 13:02:07;;;;;;;;;;;28.90;37.30;;;;;;5072623;28;19909;-34
2023/06/15 13:04:33;;;;;;;;;;;28.70;37.70;;;;;;5073095;28;19916;-32
2023/06/15 13:06:58;;;;;;;;;;;28.60;37.90;;;;;;5072522;28;20348;-31
2023/06/15 13:09:24;;;;;;;;;;;28.50;38.10;;;;;;5072721;28;19909;-37
2023/06/15 13:11:50;;;;;;;;;;;28.50;38.10;;;;;;5072240;28;19997;-34
2023/06/15 13:14:15;;;;;;;;;;;28.50;38.10;;;;;;5072506;28;19955;-34
2023/06/15 13:16:40;;;;;;;;;;;28.60;38.10;;;;;;5071512;28;19913;-31
2023/06/15 13:19:08;;;;;;;;;;;28.60;38.20;;;;;;5072471;28;20430;-31
2023/06/15 13:21:33;;;;;;;;;;;28.90;38.20;;;;;;5072423;28;19916;-30
2023/06/15 13:23:59;;;;;;;;;;;29.00;37.20;;;;;;5072633;28;19909;-33
2023/06/15 13:26:24;;;;;;;;;;;29.00;37.50;;;;;;5072461;28;19924;-34
2023/06/15 13:28:50;;;;;;;;;;;28.90;37.60;;;;;;5072435;28;20018;-32
2023/06/15 13:31:15;;;;;;;;;;;28.90;37.50;;;;;;5072290;28;19934;-32
2023/06/15 13:33:41;;;;;;;;;;;29.00;37.40;;;;;;5072462;28;19950;-34
2023/06/15 13:36:06;;;;;;;;;;;29.20;36.30;;;;;;5072308;28;20055;-30
2023/06/15 13:38:32;;;;;;;;;;;29.30;35.90;;;;;;5072264;28;19916;-35
2023/06/15 13:40:57;;;;;;;;;;;29.30;35.80;;;;;;5072241;28;19951;-31
2023/06/15 13:43:23;;;;;;;;;;;29.40;35.40;;;;;;5072135;28;19912;-32
2023/06/15 13:45:48;;;;;;;;;;;29.40;35.90;;;;;;5072470;28;19935;-31
2023/06/15 13:48:14;;;;;;;;;;;29.40;36.20;;;;;;5070834;28;19908;-34
2023/06/15 13:50:39;;;;;;;;;;;29.30;35.80;;;;;;5072358;28;19974;-35
2023/06/15 13:53:05;;;;;;;;;;;29.30;35.90;;;;;;5072398;28;19915;-32
2023/06/15 13:55:30;;;;;;;;;;;29.40;35.20;;;;;;5071972;28;20364;-32
2023/06/15 13:57:56;;;;;;;;;;;29.40;34.70;;;;;;5072015;28;20007;-29
2023/06/15 14:00:22;;;;;;;;;;;29.60;34.80;;;;;;5072214;28;19923;-34
2023/06/15 14:02:47;;;;;;;;;;;29.80;34.00;;;;;;5071896;28;19908;-28
2023/06/15 14:05:13;;;;;;;;;;;29.80;32.60;;;;;;5072082;28;19916;-28
2023/06/15 14:07:39;;;;;;;;;;;29.90;33.10;;;;;;5072002;28;20348;-31
2023/06/15 14:10:04;;;;;;;;;;;30.00;33.50;;;;;;5071709;28;20370;-30
2023/06/15 14:12:30;;;;;;;;;;;30.10;33.10;;;;;;5071848;28;19908;-35